Detroit, Michigan
Traffic Map
Current Weather Conditions
Detroit, Michigan
Few Clouds
Few Clouds

Feels Like: 7°
Wind Chill: Ceiling: Unl
Heat Index: Visibility: 15mi
Dew Point: Wind: 0mph
Humidity: 71% Direction: ° ()
Pressure: 30.05in Gusts: 0mph
Raw Report DataCYQG 210900Z 00000KT 15SM FEW280 07/02 A3005 RMK CI1 SLP176
Traffic Incident Summary
Active as of:
Severity:
Category:
InformationThere was an issue retrieving the traffic information for this location. Please try a different location or try again shortly.
Advertisements
At Last! Intellicast now available for iPhone and Android